Time;durP1;ratioP1;P1;durP2;ratioP2;P2;SDS_P1;SDS_P2;PMS_P1;PMS_P2;Temp;Humidity;BMP_temperature;BMP_pressure;BME280_temperature;BME280_humidity;BME280_pressure;Samples;Min_cycle;Max_cycle;Signal;HPM_P1;HPM_P2
2021/09/02 00:00:48;;;;;;;9.67;8.73;;;;;;;;;;5054630;28;20296;-62
2021/09/02 00:03:13;;;;;;;8.83;8.07;;;;;;;;;;5054571;28;20278;-62
2021/09/02 00:05:38;;;;;;;8.80;7.90;;;;;;;;;;5054498;28;20213;-62
2021/09/02 00:08:04;;;;;;;8.40;7.70;;;;;;;;;;5054523;28;20648;-61
2021/09/02 00:10:29;;;;;;;11.43;9.20;;;;;;;;;;5054848;28;20221;-61
2021/09/02 00:12:54;;;;;;;9.57;8.60;;;;;;;;;;5053677;28;20221;-61
2021/09/02 00:15:20;;;;;;;9.70;8.67;;;;;;;;;;5054863;28;20610;-62
2021/09/02 00:17:45;;;;;;;8.07;7.30;;;;;;;;;;5054131;28;20637;-62
2021/09/02 00:20:17;;;;;;;8.77;7.80;;;;;;;;;;5053694;28;20251;-62
2021/09/02 00:22:42;;;;;;;8.50;7.70;;;;;;;;;;5036825;28;20216;-61
2021/09/02 00:25:08;;;;;;;9.83;8.67;;;;;;;;;;5054045;28;20478;-62
2021/09/02 00:27:33;;;;;;;9.03;7.73;;;;;;;;;;5054010;28;20213;-62
2021/09/02 00:29:59;;;;;;;9.87;8.20;;;;;;;;;;5053500;28;20953;-61
2021/09/02 00:32:24;;;;;;;10.90;8.00;;;;;;;;;;5054538;28;20217;-62
2021/09/02 00:34:49;;;;;;;8.20;7.50;;;;;;;;;;5053683;28;20275;-63
2021/09/02 00:37:14;;;;;;;9.80;8.83;;;;;;;;;;5053558;28;20232;-61
2021/09/02 00:39:40;;;;;;;11.10;9.97;;;;;;;;;;5054055;28;20214;-61
2021/09/02 00:42:05;;;;;;;11.97;9.47;;;;;;;;;;5053883;28;20370;-61
2021/09/02 00:44:40;;;;;;;9.27;8.37;;;;;;;;;;5053524;28;20225;-61
2021/09/02 00:47:06;;;;;;;8.90;8.00;;;;;;;;;;5053683;28;20220;-61
2021/09/02 00:49:33;;;;;;;9.63;8.73;;;;;;;;;;5054163;28;20460;-62
2021/09/02 00:52:00;;;;;;;10.00;8.90;;;;;;;;;;5053263;28;20463;-61
2021/09/02 00:54:26;;;;;;;8.00;7.30;;;;;;;;;;5053846;28;20935;-61
2021/09/02 00:56:51;;;;;;;10.23;8.40;;;;;;;;;;5053757;28;20466;-63
2021/09/02 00:59:16;;;;;;;9.07;8.17;;;;;;;;;;5053549;28;20221;-62
2021/09/02 01:01:42;;;;;;;8.93;8.03;;;;;;;;;;5053399;28;20209;-62
2021/09/02 01:04:07;;;;;;;10.60;9.50;;;;;;;;;;5053429;28;20244;-62
2021/09/02 01:06:33;;;;;;;10.40;9.40;;;;;;;;;;5053930;28;20217;-61
2021/09/02 01:08:58;;;;;;;10.00;9.00;;;;;;;;;;5052718;28;20617;-61
2021/09/02 01:11:23;;;;;;;9.87;8.80;;;;;;;;;;5036420;28;20225;-61
2021/09/02 01:13:49;;;;;;;9.70;8.70;;;;;;;;;;5053360;28;20248;-62
2021/09/02 01:16:14;;;;;;;11.77;9.60;;;;;;;;;;5053147;28;20228;-61
2021/09/02 01:18:39;;;;;;;10.67;9.67;;;;;;;;;;5053432;28;20217;-61
2021/09/02 01:21:05;;;;;;;8.90;8.00;;;;;;;;;;5053220;28;20229;-62
2021/09/02 01:23:37;;;;;;;9.50;8.50;;;;;;;;;;5053333;28;20223;-62
2021/09/02 01:26:13;;;;;;;8.77;7.97;;;;;;;;;;5035386;28;20217;-62
2021/09/02 01:28:39;;;;;;;9.07;7.90;;;;;;;;;;5053650;28;20985;-62
2021/09/02 01:31:04;;;;;;;8.70;7.80;;;;;;;;;;5035293;28;20460;-62
2021/09/02 01:33:29;;;;;;;9.20;8.20;;;;;;;;;;5053007;28;20603;-62
2021/09/02 01:35:54;;;;;;;12.70;9.10;;;;;;;;;;5053163;28;20301;-62
2021/09/02 01:38:20;;;;;;;7.63;6.53;;;;;;;;;;5053089;28;20221;-62
2021/09/02 01:40:47;;;;;;;9.93;8.97;;;;;;;;;;5052367;28;20274;-61
2021/09/02 01:43:15;;;;;;;9.23;7.90;;;;;;;;;;5035733;28;20220;-61
2021/09/02 01:45:41;;;;;;;9.73;8.73;;;;;;;;;;5053463;28;20468;-62
2021/09/02 01:48:06;;;;;;;10.20;9.20;;;;;;;;;;5052331;28;20464;-62
2021/09/02 01:50:34;;;;;;;10.90;9.60;;;;;;;;;;5053111;28;20216;-61
2021/09/02 01:53:02;;;;;;;10.20;9.20;;;;;;;;;;5052924;28;20714;-61
2021/09/02 01:55:27;;;;;;;10.23;9.23;;;;;;;;;;5052957;28;20795;-61
2021/09/02 01:57:53;;;;;;;9.90;9.00;;;;;;;;;;5052468;28;20553;-62
2021/09/02 02:00:19;;;;;;;10.10;9.10;;;;;;;;;;5052407;28;20240;-61
2021/09/02 02:02:45;;;;;;;12.80;9.10;;;;;;;;;;5053268;28;20228;-61
2021/09/02 02:05:10;;;;;;;10.50;9.23;;;;;;;;;;5052014;28;20955;-61
2021/09/02 02:07:37;;;;;;;9.40;8.50;;;;;;;;;;5035919;28;20664;-62
2021/09/02 02:10:04;;;;;;;9.50;8.63;;;;;;;;;;5035384;28;20245;-61
2021/09/02 02:12:29;;;;;;;9.73;8.83;;;;;;;;;;5052629;28;20462;-62
2021/09/02 02:14:54;;;;;;;10.67;9.57;;;;;;;;;;5052596;28;20464;-62
2021/09/02 02:17:19;;;;;;;9.80;9.00;;;;;;;;;;5053192;28;20306;-62
2021/09/02 02:19:45;;;;;;;10.33;9.33;;;;;;;;;;5052774;28;20555;-62
2021/09/02 02:22:10;;;;;;;10.60;8.33;;;;;;;;;;5052309;28;20298;-61
2021/09/02 02:24:35;;;;;;;11.07;10.03;;;;;;;;;;5053154;28;20229;-61
2021/09/02 02:27:00;;;;;;;12.60;9.03;;;;;;;;;;5052382;28;20354;-62
2021/09/02 02:29:26;;;;;;;11.03;9.93;;;;;;;;;;5052366;28;20223;-61
2021/09/02 02:31:51;;;;;;;12.20;10.67;;;;;;;;;;5053110;28;20234;-62
2021/09/02 02:34:16;;;;;;;9.83;8.90;;;;;;;;;;5052603;28;20656;-61
2021/09/02 02:36:42;;;;;;;10.57;9.47;;;;;;;;;;5052371;28;20300;-62
2021/09/02 02:39:07;;;;;;;10.90;9.00;;;;;;;;;;5052465;28;20229;-61
2021/09/02 02:41:33;;;;;;;10.13;9.20;;;;;;;;;;5052829;28;20225;-61
2021/09/02 02:43:58;;;;;;;9.97;8.97;;;;;;;;;;5051803;28;20228;-62
2021/09/02 02:46:24;;;;;;;10.30;9.40;;;;;;;;;;5052510;28;20359;-62
2021/09/02 02:48:49;;;;;;;10.87;9.77;;;;;;;;;;5052928;28;20240;-62
2021/09/02 02:51:15;;;;;;;9.50;8.60;;;;;;;;;;5052980;28;20229;-62
2021/09/02 02:53:40;;;;;;;10.87;9.70;;;;;;;;;;5045511;28;20673;-63
2021/09/02 02:56:06;;;;;;;10.60;9.50;;;;;;;;;;5055476;28;20618;-62
2021/09/02 02:58:31;;;;;;;10.10;9.13;;;;;;;;;;5056334;28;20643;-62
2021/09/02 03:00:56;;;;;;;9.77;8.83;;;;;;;;;;5055415;28;20234;-62
2021/09/02 03:03:22;;;;;;;10.63;8.60;;;;;;;;;;5055795;28;20273;-63
2021/09/02 03:05:47;;;;;;;9.57;8.63;;;;;;;;;;5056392;28;20221;-61
2021/09/02 03:08:12;;;;;;;10.03;9.00;;;;;;;;;;5055107;28;20567;-61
2021/09/02 03:10:37;;;;;;;10.30;9.30;;;;;;;;;;5055767;28;20225;-61
2021/09/02 03:13:03;;;;;;;12.83;10.20;;;;;;;;;;5055681;28;20285;-61
2021/09/02 03:15:29;;;;;;;10.87;9.70;;;;;;;;;;5055658;28;20295;-61
2021/09/02 03:17:55;;;;;;;10.83;8.83;;;;;;;;;;5055475;28;20267;-62
2021/09/02 03:20:20;;;;;;;9.40;8.27;;;;;;;;;;5055448;28;20544;-62
2021/09/02 03:22:46;;;;;;;10.07;9.07;;;;;;;;;;5055683;28;20216;-61
2021/09/02 03:25:11;;;;;;;10.50;9.13;;;;;;;;;;5054529;28;20403;-62
2021/09/02 03:27:36;;;;;;;10.10;8.73;;;;;;;;;;5055793;28;20217;-61
2021/09/02 03:30:03;;;;;;;10.63;9.53;;;;;;;;;;5055305;28;20304;-63
2021/09/02 03:32:29;;;;;;;9.80;8.53;;;;;;;;;;5054908;28;20667;-62
2021/09/02 03:34:54;;;;;;;9.93;8.93;;;;;;;;;;5055575;28;20535;-62
2021/09/02 03:37:19;;;;;;;11.23;9.93;;;;;;;;;;5055301;28;20247;-62
2021/09/02 03:39:44;;;;;;;9.57;8.60;;;;;;;;;;5054951;28;20235;-61
2021/09/02 03:42:10;;;;;;;13.37;9.77;;;;;;;;;;5054724;28;20240;-62
2021/09/02 03:44:35;;;;;;;11.17;10.10;;;;;;;;;;5055468;28;20221;-62
2021/09/02 03:47:00;;;;;;;11.37;9.23;;;;;;;;;;5054857;28;20228;-63
2021/09/02 03:49:26;;;;;;;10.47;9.57;;;;;;;;;;5054764;28;20237;-62
2021/09/02 03:51:51;;;;;;;13.67;8.80;;;;;;;;;;5037958;28;20315;-62
2021/09/02 03:54:16;;;;;;;9.20;8.40;;;;;;;;;;5054921;28;20220;-61
2021/09/02 03:56:41;;;;;;;11.27;8.80;;;;;;;;;;5054580;28;20667;-61
2021/09/02 03:59:07;;;;;;;11.03;9.23;;;;;;;;;;5054706;28;20296;-62
2021/09/02 04:01:32;;;;;;;10.23;9.23;;;;;;;;;;5054673;28;20579;-62
2021/09/02 04:03:57;;;;;;;10.23;9.30;;;;;;;;;;5054469;28;20270;-62
2021/09/02 04:06:23;;;;;;;8.93;8.10;;;;;;;;;;5054344;28;20212;-63
2021/09/02 04:08:48;;;;;;;10.10;9.20;;;;;;;;;;5055145;28;20205;-62
2021/09/02 04:11:13;;;;;;;11.60;9.10;;;;;;;;;;5036569;28;20608;-62
2021/09/02 04:13:39;;;;;;;12.57;9.47;;;;;;;;;;5052105;28;20282;-62
2021/09/02 04:16:05;;;;;;;11.13;9.50;;;;;;;;;;5058042;28;20259;-62
2021/09/02 04:18:30;;;;;;;10.70;9.20;;;;;;;;;;5065839;28;20299;-61
2021/09/02 04:20:57;;;;;;;10.67;9.57;;;;;;;;;;5063977;28;20470;-60
2021/09/02 04:23:22;;;;;;;9.00;8.10;;;;;;;;;;5073894;28;20292;-61
2021/09/02 04:25:48;;;;;;;10.37;9.47;;;;;;;;;;5055436;28;20468;-60
2021/09/02 04:28:13;;;;;;;9.20;8.30;;;;;;;;;;5065715;28;20303;-61
2021/09/02 04:30:38;;;;;;;12.53;8.43;;;;;;;;;;5062923;28;20221;-61
2021/09/02 04:33:03;;;;;;;10.90;9.40;;;;;;;;;;5061769;28;20222;-62
2021/09/02 04:35:29;;;;;;;11.30;9.30;;;;;;;;;;5067264;28;20243;-62
2021/09/02 04:37:55;;;;;;;11.40;9.13;;;;;;;;;;5048207;28;20216;-61
2021/09/02 04:40:20;;;;;;;9.50;8.27;;;;;;;;;;5059878;28;20301;-61
2021/09/02 04:42:45;;;;;;;10.43;9.43;;;;;;;;;;5062389;28;20296;-61
2021/09/02 04:45:12;;;;;;;11.30;9.77;;;;;;;;;;5048666;28;20229;-61
2021/09/02 04:47:37;;;;;;;10.80;9.70;;;;;;;;;;5066160;28;20220;-61
2021/09/02 04:50:05;;;;;;;11.47;10.37;;;;;;;;;;5060454;28;20467;-61
2021/09/02 04:52:30;;;;;;;11.60;9.20;;;;;;;;;;5060198;28;20333;-61
2021/09/02 04:54:56;;;;;;;12.10;10.00;;;;;;;;;;5072741;28;20530;-61
2021/09/02 04:57:21;;;;;;;9.77;8.87;;;;;;;;;;5061006;28;20550;-61
2021/09/02 04:59:47;;;;;;;13.40;10.27;;;;;;;;;;5066664;28;20225;-65
2021/09/02 05:02:13;;;;;;;10.13;9.07;;;;;;;;;;5065183;28;20220;-61
2021/09/02 05:04:38;;;;;;;12.67;10.30;;;;;;;;;;5042923;28;20691;-62
2021/09/02 05:07:04;;;;;;;11.10;10.00;;;;;;;;;;5043831;28;20492;-61
2021/09/02 05:09:29;;;;;;;12.20;11.00;;;;;;;;;;5048603;28;20209;-61
2021/09/02 05:11:54;;;;;;;10.17;9.17;;;;;;;;;;5048172;28;20212;-61
2021/09/02 05:14:19;;;;;;;13.63;9.57;;;;;;;;;;5043773;28;20656;-61
2021/09/02 05:16:45;;;;;;;11.80;10.07;;;;;;;;;;5063059;28;20217;-61
2021/09/02 05:19:10;;;;;;;11.23;10.03;;;;;;;;;;5066623;28;20259;-61
2021/09/02 05:21:35;;;;;;;11.97;9.57;;;;;;;;;;5063148;28;20220;-61
2021/09/02 05:24:00;;;;;;;11.93;9.80;;;;;;;;;;5059495;28;20692;-61
2021/09/02 05:26:26;;;;;;;11.20;9.17;;;;;;;;;;5063535;28;20213;-61
2021/09/02 05:28:51;;;;;;;10.30;9.30;;;;;;;;;;5066824;28;20281;-61
2021/09/02 05:31:16;;;;;;;11.43;10.10;;;;;;;;;;5062034;28;20235;-61
2021/09/02 05:33:42;;;;;;;10.53;9.30;;;;;;;;;;5059523;28;20274;-61
2021/09/02 05:36:07;;;;;;;13.07;11.07;;;;;;;;;;5064588;28;20213;-61
2021/09/02 05:38:32;;;;;;;10.57;9.23;;;;;;;;;;5066303;28;20679;-61
2021/09/02 05:40:58;;;;;;;12.53;10.70;;;;;;;;;;5061614;28;20713;-61
2021/09/02 05:43:23;;;;;;;11.70;9.93;;;;;;;;;;5059646;28;20217;-61
2021/09/02 05:45:48;;;;;;;11.53;9.37;;;;;;;;;;5064664;28;20232;-61
2021/09/02 05:48:13;;;;;;;14.60;10.47;;;;;;;;;;5054116;28;20221;-62
2021/09/02 05:50:39;;;;;;;10.13;9.20;;;;;;;;;;5064572;28;20243;-61
2021/09/02 05:53:04;;;;;;;12.87;9.13;;;;;;;;;;5066948;28;20549;-61
2021/09/02 05:55:30;;;;;;;11.70;9.33;;;;;;;;;;5060775;28;20217;-62
2021/09/02 05:57:55;;;;;;;13.03;9.70;;;;;;;;;;5059467;28;20683;-61
2021/09/02 06:00:20;;;;;;;12.00;10.80;;;;;;;;;;5064748;28;20245;-61
2021/09/02 06:02:45;;;;;;;16.70;10.87;;;;;;;;;;5066639;28;20721;-61
2021/09/02 06:05:11;;;;;;;12.33;10.70;;;;;;;;;;5059355;28;20304;-62
2021/09/02 06:07:36;;;;;;;12.00;10.33;;;;;;;;;;5059543;28;20275;-61
2021/09/02 06:10:02;;;;;;;12.30;11.00;;;;;;;;;;5072322;28;20248;-61
2021/09/02 06:12:27;;;;;;;11.33;10.10;;;;;;;;;;5041428;28;20325;-61
2021/09/02 06:14:53;;;;;;;13.67;12.20;;;;;;;;;;5060853;28;20555;-61
2021/09/02 06:17:18;;;;;;;12.90;11.60;;;;;;;;;;5064034;28;20673;-62
2021/09/02 06:19:43;;;;;;;13.50;10.13;;;;;;;;;;5065897;28;20247;-61
2021/09/02 06:22:08;;;;;;;12.33;10.20;;;;;;;;;;5042868;28;20664;-62
2021/09/02 06:24:34;;;;;;;12.13;10.93;;;;;;;;;;5058895;28;20310;-62
2021/09/02 06:26:59;;;;;;;12.03;10.00;;;;;;;;;;5068756;28;20225;-62
2021/09/02 06:29:24;;;;;;;14.27;10.97;;;;;;;;;;5068685;28;20286;-62
2021/09/02 06:31:50;;;;;;;12.90;10.83;;;;;;;;;;5064216;28;20217;-62
2021/09/02 06:34:16;;;;;;;14.90;10.80;;;;;;;;;;5062668;28;20275;-62
2021/09/02 06:36:41;;;;;;;12.90;11.57;;;;;;;;;;5050547;28;20542;-61
2021/09/02 06:39:07;;;;;;;13.90;11.47;;;;;;;;;;5070031;28;20228;-61
2021/09/02 06:41:32;;;;;;;17.63;11.33;;;;;;;;;;5063301;28;20278;-62
2021/09/02 06:43:57;;;;;;;12.17;10.60;;;;;;;;;;5044648;28;20229;-61
2021/09/02 06:46:22;;;;;;;14.47;11.43;;;;;;;;;;5068776;28;20652;-61
2021/09/02 06:48:48;;;;;;;12.87;11.57;;;;;;;;;;5057158;28;20559;-61
2021/09/02 06:51:16;;;;;;;16.33;11.63;;;;;;;;;;5068876;28;20241;-62
2021/09/02 06:53:41;;;;;;;13.60;11.20;;;;;;;;;;5068473;28;20597;-61
2021/09/02 06:56:06;;;;;;;12.37;10.67;;;;;;;;;;5062568;28;20541;-61
2021/09/02 06:58:32;;;;;;;16.80;12.27;;;;;;;;;;5045673;28;20236;-62
2021/09/02 07:00:57;;;;;;;12.00;10.70;;;;;;;;;;5068524;28;20235;-61
2021/09/02 07:03:22;;;;;;;12.13;10.50;;;;;;;;;;5067789;28;20379;-61
2021/09/02 07:05:47;;;;;;;11.33;10.07;;;;;;;;;;5062277;28;20228;-61
2021/09/02 07:08:13;;;;;;;14.80;10.50;;;;;;;;;;5074283;28;20241;-61
2021/09/02 07:10:38;;;;;;;11.57;9.60;;;;;;;;;;5073564;28;20231;-61
2021/09/02 07:13:04;;;;;;;13.77;9.77;;;;;;;;;;5075843;28;20217;-61
2021/09/02 07:15:29;;;;;;;11.40;9.93;;;;;;;;;;5057633;28;20563;-62
2021/09/02 07:17:54;;;;;;;12.83;10.73;;;;;;;;;;5063641;28;20312;-60
2021/09/02 07:20:20;;;;;;;12.27;10.43;;;;;;;;;;5068276;28;20680;-61
2021/09/02 07:22:45;;;;;;;10.10;9.10;;;;;;;;;;5066527;28;20216;-61
2021/09/02 07:25:10;;;;;;;11.87;10.03;;;;;;;;;;5061381;28;20313;-61
2021/09/02 07:27:35;;;;;;;12.30;9.60;;;;;;;;;;5063470;28;20267;-62
2021/09/02 07:30:01;;;;;;;15.30;10.83;;;;;;;;;;5068533;28;20275;-61
2021/09/02 07:32:26;;;;;;;13.53;9.70;;;;;;;;;;5048316;28;20224;-61
2021/09/02 07:34:51;;;;;;;13.50;9.33;;;;;;;;;;5061555;28;20209;-62
2021/09/02 07:37:17;;;;;;;13.50;11.23;;;;;;;;;;5062992;28;20609;-62
2021/09/02 07:39:42;;;;;;;13.90;11.90;;;;;;;;;;5067636;28;20221;-61
2021/09/02 07:42:08;;;;;;;9.90;8.90;;;;;;;;;;5066038;28;20231;-61
2021/09/02 07:44:33;;;;;;;11.53;10.53;;;;;;;;;;5061200;28;20703;-61
2021/09/02 07:46:58;;;;;;;12.57;10.17;;;;;;;;;;5064061;28;20224;-62
2021/09/02 07:49:23;;;;;;;13.70;10.70;;;;;;;;;;5067409;28;20304;-61
2021/09/02 07:51:49;;;;;;;11.77;10.57;;;;;;;;;;5048120;28;20702;-61
2021/09/02 07:54:14;;;;;;;13.40;12.10;;;;;;;;;;5061633;28;20236;-61
2021/09/02 07:56:39;;;;;;;14.30;12.47;;;;;;;;;;5063577;28;20646;-60
2021/09/02 07:59:05;;;;;;;12.50;11.40;;;;;;;;;;5068228;28;20300;-61
2021/09/02 08:01:30;;;;;;;15.03;13.20;;;;;;;;;;5064347;28;20227;-61
2021/09/02 08:03:55;;;;;;;12.90;11.60;;;;;;;;;;5043129;28;20671;-61
2021/09/02 08:06:20;;;;;;;12.23;11.13;;;;;;;;;;5064121;28;20224;-61
2021/09/02 08:08:46;;;;;;;14.13;12.83;;;;;;;;;;5068157;28;20680;-61
2021/09/02 08:11:11;;;;;;;13.67;11.20;;;;;;;;;;5063601;28;20235;-62
2021/09/02 08:13:37;;;;;;;14.00;12.40;;;;;;;;;;5057798;28;20672;-61
2021/09/02 08:16:02;;;;;;;13.50;12.13;;;;;;;;;;5063880;28;20300;-62
2021/09/02 08:18:27;;;;;;;16.43;12.70;;;;;;;;;;5060425;28;20279;-61
2021/09/02 08:20:53;;;;;;;12.67;11.47;;;;;;;;;;5064614;28;20232;-61
2021/09/02 08:23:18;;;;;;;13.50;11.73;;;;;;;;;;5067735;28;20602;-61
2021/09/02 08:25:44;;;;;;;16.07;11.40;;;;;;;;;;5057024;28;20323;-61
2021/09/02 08:28:09;;;;;;;12.80;11.50;;;;;;;;;;5048511;28;20233;-61
2021/09/02 08:30:34;;;;;;;12.87;11.67;;;;;;;;;;5052937;28;20224;-62
2021/09/02 08:32:59;;;;;;;12.47;11.23;;;;;;;;;;5058390;28;20221;-62
2021/09/02 08:35:31;;;;;;;11.63;10.03;;;;;;;;;;5049213;28;20232;-62
2021/09/02 08:38:02;;;;;;;15.73;11.67;;;;;;;;;;5057494;28;20248;-62
2021/09/02 08:40:30;;;;;;;11.60;10.20;;;;;;;;;;5049227;28;20478;-62
2021/09/02 08:42:56;;;;;;;12.67;11.23;;;;;;;;;;5068054;28;20538;-62
2021/09/02 08:45:23;;;;;;;16.30;11.77;;;;;;;;;;5060365;28;20467;-61
2021/09/02 08:47:49;;;;;;;12.67;11.43;;;;;;;;;;5063856;28;20555;-62
2021/09/02 08:50:17;;;;;;;11.27;10.27;;;;;;;;;;5063614;28;20484;-62
2021/09/02 08:52:43;;;;;;;11.73;10.53;;;;;;;;;;5059189;28;20463;-62
2021/09/02 08:55:09;;;;;;;10.83;9.83;;;;;;;;;;5052755;28;20580;-63
2021/09/02 08:57:34;;;;;;;13.00;11.70;;;;;;;;;;5059713;28;20229;-63
2021/09/02 08:59:59;;;;;;;11.10;10.00;;;;;;;;;;5059241;28;20464;-61
2021/09/02 09:02:27;;;;;;;11.10;9.93;;;;;;;;;;5064621;28;20323;-63
2021/09/02 09:05:18;;;;;;;12.00;10.80;;;;;;;;;;5063100;28;20565;-62
2021/09/02 09:07:48;;;;;;;11.83;10.57;;;;;;;;;;5056963;28;20455;-62
2021/09/02 09:10:16;;;;;;;11.37;10.37;;;;;;;;;;5059968;28;20545;-62
2021/09/02 09:12:44;;;;;;;13.50;12.17;;;;;;;;;;5062902;28;20455;-61
2021/09/02 09:15:17;;;;;;;11.07;10.03;;;;;;;;;;5059793;28;20478;-61
2021/09/02 09:17:42;;;;;;;10.07;9.17;;;;;;;;;;5063086;28;20525;-63
2021/09/02 09:20:08;;;;;;;9.90;8.93;;;;;;;;;;5067998;28;20946;-62
2021/09/02 09:22:34;;;;;;;10.33;9.43;;;;;;;;;;5046946;28;20695;-62
2021/09/02 09:25:01;;;;;;;9.40;8.50;;;;;;;;;;5054147;28;20981;-62
2021/09/02 09:27:42;;;;;;;10.10;7.30;;;;;;;;;;5065597;28;20681;-62
2021/09/02 09:30:15;;;;;;;9.43;8.30;;;;;;;;;;5066893;28;21552;-62
2021/09/02 09:32:48;;;;;;;9.07;8.30;;;;;;;;;;5062744;28;20474;-62
2021/09/02 09:35:22;;;;;;;9.07;8.20;;;;;;;;;;5060075;28;20476;-62
2021/09/02 09:37:49;;;;;;;9.10;8.30;;;;;;;;;;5060596;28;20452;-61
2021/09/02 09:40:20;;;;;;;9.73;8.87;;;;;;;;;;5065889;28;20476;-62
2021/09/02 09:42:58;;;;;;;9.43;8.53;;;;;;;;;;5065699;28;20871;-62
2021/09/02 09:45:43;;;;;;;10.27;9.33;;;;;;;;;;5043731;28;20460;-62
2021/09/02 09:48:39;;;;;;;9.47;8.67;;;;;;;;;;5065538;28;20537;-63
2021/09/02 09:51:12;;;;;;;9.70;8.90;;;;;;;;;;5047397;28;20475;-62
2021/09/02 09:53:39;;;;;;;10.40;9.40;;;;;;;;;;5044805;28;20891;-62
2021/09/02 09:56:05;;;;;;;10.00;9.10;;;;;;;;;;5059053;28;20456;-61
2021/09/02 09:58:30;;;;;;;9.23;8.20;;;;;;;;;;5063459;28;20467;-61
2021/09/02 10:00:58;;;;;;;9.47;8.57;;;;;;;;;;5068871;28;20221;-61
2021/09/02 10:03:24;;;;;;;12.83;9.20;;;;;;;;;;5058559;28;20710;-61
2021/09/02 10:05:50;;;;;;;10.90;9.97;;;;;;;;;;5070115;28;20487;-60
2021/09/02 10:08:16;;;;;;;8.90;8.00;;;;;;;;;;5066072;28;20557;-61
2021/09/02 10:10:42;;;;;;;8.90;8.10;;;;;;;;;;5060991;28;20853;-61
2021/09/02 10:13:08;;;;;;;8.63;7.73;;;;;;;;;;5047963;28;20462;-61
2021/09/02 10:15:34;;;;;;;10.30;9.23;;;;;;;;;;5040388;28;20213;-61
2021/09/02 10:17:59;;;;;;;9.83;8.90;;;;;;;;;;5069376;28;20474;-60
2021/09/02 10:20:27;;;;;;;9.67;8.63;;;;;;;;;;5037572;28;20241;-61
2021/09/02 10:22:57;;;;;;;9.77;8.77;;;;;;;;;;5061382;28;20220;-60
2021/09/02 10:25:35;;;;;;;9.37;8.50;;;;;;;;;;5061021;28;20470;-60
2021/09/02 10:28:05;;;;;;;10.60;8.40;;;;;;;;;;5061006;28;20451;-60
2021/09/02 10:30:31;;;;;;;8.37;7.47;;;;;;;;;;5065456;28;20455;-61
2021/09/02 10:32:57;;;;;;;10.77;9.77;;;;;;;;;;5069290;28;20489;-62
2021/09/02 10:35:25;;;;;;;8.60;7.80;;;;;;;;;;5063840;28;20467;-61
2021/09/02 10:37:52;;;;;;;9.30;8.40;;;;;;;;;;5055917;28;20452;-60
2021/09/02 10:40:17;;;;;;;9.53;8.43;;;;;;;;;;5064869;28;20787;-62
2021/09/02 10:42:44;;;;;;;8.83;7.93;;;;;;;;;;5061170;28;20451;-62
2021/09/02 10:45:30;;;;;;;9.00;8.20;;;;;;;;;;5066956;28;20287;-62
2021/09/02 10:47:57;;;;;;;10.20;8.50;;;;;;;;;;5069171;28;20490;-61
2021/09/02 10:50:24;;;;;;;10.20;8.63;;;;;;;;;;5056736;28;20784;-61
2021/09/02 10:52:50;;;;;;;11.40;9.70;;;;;;;;;;5057800;28;20539;-61
2021/09/02 10:55:25;;;;;;;9.70;8.70;;;;;;;;;;5064372;28;20608;-60
2021/09/02 10:57:50;;;;;;;11.63;10.57;;;;;;;;;;5062352;28;20546;-61
2021/09/02 11:00:31;;;;;;;12.43;9.70;;;;;;;;;;5059315;28;20459;-61
2021/09/02 11:03:19;;;;;;;9.23;7.90;;;;;;;;;;5063336;28;20236;-62
2021/09/02 11:05:49;;;;;;;10.50;9.50;;;;;;;;;;5062072;28;20524;-62
2021/09/02 11:08:36;;;;;;;10.13;9.13;;;;;;;;;;5071490;28;20478;-62
2021/09/02 11:11:27;;;;;;;10.43;9.43;;;;;;;;;;5048672;28;20458;-62
2021/09/02 11:13:54;;;;;;;9.17;8.27;;;;;;;;;;5055420;28;20950;-60
2021/09/02 11:16:22;;;;;;;10.33;9.37;;;;;;;;;;5067898;28;20486;-61
2021/09/02 11:18:53;;;;;;;11.23;10.23;;;;;;;;;;5062032;28;20546;-62
2021/09/02 11:21:23;;;;;;;9.70;8.50;;;;;;;;;;5063035;28;20455;-62
2021/09/02 11:24:05;;;;;;;13.20;9.47;;;;;;;;;;5068218;28;20486;-62
2021/09/02 11:26:37;;;;;;;9.40;8.17;;;;;;;;;;5063750;28;20483;-62
2021/09/02 11:29:03;;;;;;;11.20;9.20;;;;;;;;;;5065842;28;20470;-66
2021/09/02 11:31:28;;;;;;;9.90;8.47;;;;;;;;;;5034737;28;21100;-66
2021/09/02 11:33:54;;;;;;;10.37;9.47;;;;;;;;;;5064711;28;20466;-66
2021/09/02 11:36:20;;;;;;;12.40;11.20;;;;;;;;;;5062097;28;20232;-66
2021/09/02 11:38:50;;;;;;;8.70;7.90;;;;;;;;;;5065667;28;20228;-66
2021/09/02 11:41:20;;;;;;;8.50;7.30;;;;;;;;;;5068513;28;20471;-67
2021/09/02 11:43:46;;;;;;;10.00;8.27;;;;;;;;;;5065120;28;20524;-66
2021/09/02 11:46:11;;;;;;;9.40;8.60;;;;;;;;;;5061733;28;20926;-65
2021/09/02 11:48:48;;;;;;;9.30;8.37;;;;;;;;;;5065481;28;20474;-67
2021/09/02 11:51:27;;;;;;;9.37;8.40;;;;;;;;;;5068360;28;20244;-65
2021/09/02 11:54:04;;;;;;;10.90;8.97;;;;;;;;;;5068210;28;20925;-64
2021/09/02 11:56:29;;;;;;;8.47;7.57;;;;;;;;;;5051080;28;20458;-68
2021/09/02 11:58:58;;;;;;;7.50;6.80;;;;;;;;;;5061311;28;20550;-65
2021/09/02 12:01:23;;;;;;;7.03;6.10;;;;;;;;;;5067818;28;20221;-68
2021/09/02 12:03:50;;;;;;;6.23;5.63;;;;;;;;;;5061394;28;20467;-66
2021/09/02 12:06:16;;;;;;;7.07;6.47;;;;;;;;;;5066674;28;20228;-67
2021/09/02 12:08:43;;;;;;;6.80;6.20;;;;;;;;;;5068635;28;20471;-66
2021/09/02 12:11:09;;;;;;;7.60;7.00;;;;;;;;;;5062967;28;20537;-66
2021/09/02 12:13:36;;;;;;;7.40;6.70;;;;;;;;;;5059613;28;20468;-67
2021/09/02 12:16:03;;;;;;;7.80;7.10;;;;;;;;;;5063706;28;20228;-67
2021/09/02 12:18:30;;;;;;;8.97;7.60;;;;;;;;;;5061493;28;20517;-66
2021/09/02 12:21:31;;;;;;;8.27;7.57;;;;;;;;;;5065014;28;20478;-66
2021/09/02 12:24:11;;;;;;;8.57;7.77;;;;;;;;;;5032333;28;20463;-66
2021/09/02 12:26:54;;;;;;;8.20;7.43;;;;;;;;;;5043688;28;20459;-65
2021/09/02 12:29:21;;;;;;;8.03;7.23;;;;;;;;;;5062879;28;20489;-65
2021/09/02 12:31:48;;;;;;;9.43;7.20;;;;;;;;;;5068025;28;20467;-68
2021/09/02 12:34:26;;;;;;;7.73;7.03;;;;;;;;;;5065903;28;20898;-66
2021/09/02 12:37:06;;;;;;;8.10;6.67;;;;;;;;;;5048040;28;20459;-67
2021/09/02 12:39:33;;;;;;;8.70;6.50;;;;;;;;;;5060340;28;20468;-66
2021/09/02 12:42:06;;;;;;;10.13;7.90;;;;;;;;;;5065371;28;20466;-67
2021/09/02 12:44:33;;;;;;;6.50;5.90;;;;;;;;;;5067441;28;20471;-65
2021/09/02 12:47:16;;;;;;;7.77;6.97;;;;;;;;;;5063722;28;20529;-67
2021/09/02 12:49:44;;;;;;;8.27;7.57;;;;;;;;;;5060403;28;21021;-66
2021/09/02 12:52:18;;;;;;;8.47;7.33;;;;;;;;;;5044480;28;20464;-67
2021/09/02 12:55:06;;;;;;;8.97;8.17;;;;;;;;;;5047151;28;20465;-68
2021/09/02 12:57:35;;;;;;;7.70;6.90;;;;;;;;;;5043336;28;20455;-66
2021/09/02 13:00:01;;;;;;;9.00;8.20;;;;;;;;;;5049830;28;20538;-67
2021/09/02 13:02:27;;;;;;;9.87;8.47;;;;;;;;;;5067715;28;20939;-67
2021/09/02 13:04:52;;;;;;;9.30;7.10;;;;;;;;;;5063241;28;20474;-66
2021/09/02 13:07:17;;;;;;;10.60;9.50;;;;;;;;;;5059337;28;20220;-65
2021/09/02 13:09:43;;;;;;;26.20;23.80;;;;;;;;;;5062874;28;20239;-65
2021/09/02 13:12:08;;;;;;;24.53;22.03;;;;;;;;;;5066451;28;20225;-64
2021/09/02 13:14:34;;;;;;;18.13;16.30;;;;;;;;;;5054119;28;20209;-67
2021/09/02 13:16:59;;;;;;;18.13;16.47;;;;;;;;;;5049291;28;20298;-66
2021/09/02 13:19:24;;;;;;;16.43;14.77;;;;;;;;;;5063981;28;20702;-64
2021/09/02 13:21:49;;;;;;;8.27;7.47;;;;;;;;;;5059775;28;20212;-66
2021/09/02 13:24:15;;;;;;;7.63;6.67;;;;;;;;;;5063790;28;20241;-65
2021/09/02 13:26:40;;;;;;;7.93;7.20;;;;;;;;;;5066606;28;20316;-65
2021/09/02 13:29:05;;;;;;;8.87;7.97;;;;;;;;;;5062811;28;20217;-66
2021/09/02 13:31:31;;;;;;;9.63;8.63;;;;;;;;;;5042646;28;20240;-64
2021/09/02 13:33:56;;;;;;;15.17;10.63;;;;;;;;;;5062632;28;20233;-66
2021/09/02 13:36:22;;;;;;;12.17;11.00;;;;;;;;;;5065366;28;20620;-64
2021/09/02 13:38:48;;;;;;;10.77;8.50;;;;;;;;;;5061855;28;20304;-64
2021/09/02 13:41:13;;;;;;;11.93;10.73;;;;;;;;;;5059154;28;20868;-63
2021/09/02 13:43:38;;;;;;;13.40;12.10;;;;;;;;;;5045497;28;20233;-65
2021/09/02 13:46:05;;;;;;;8.23;7.43;;;;;;;;;;5064871;28;20598;-64
2021/09/02 13:48:30;;;;;;;11.40;10.30;;;;;;;;;;5056042;28;20625;-63
2021/09/02 13:50:56;;;;;;;8.43;7.63;;;;;;;;;;5066344;28;20486;-65
2021/09/02 13:53:21;;;;;;;9.90;6.83;;;;;;;;;;5062360;28;20289;-68
2021/09/02 13:55:49;;;;;;;8.00;7.20;;;;;;;;;;5057263;28;20224;-65
2021/09/02 13:58:14;;;;;;;14.77;10.93;;;;;;;;;;5044948;28;20216;-65
2021/09/02 14:00:41;;;;;;;9.60;8.17;;;;;;;;;;5050993;28;20486;-67
2021/09/02 14:03:07;;;;;;;13.03;8.80;;;;;;;;;;5030046;28;20240;-65
2021/09/02 14:05:32;;;;;;;10.20;8.37;;;;;;;;;;5066472;28;20501;-64
2021/09/02 14:07:57;;;;;;;9.70;8.43;;;;;;;;;;5061750;28;20232;-66
2021/09/02 14:10:23;;;;;;;11.90;8.40;;;;;;;;;;5059553;28;20231;-63
2021/09/02 14:12:48;;;;;;;10.20;9.20;;;;;;;;;;5064465;28;20225;-63
2021/09/02 14:15:13;;;;;;;12.50;9.10;;;;;;;;;;5042240;28;20228;-64
2021/09/02 14:17:39;;;;;;;10.40;7.10;;;;;;;;;;5064306;28;20560;-64
2021/09/02 14:20:04;;;;;;;7.80;7.00;;;;;;;;;;5066074;28;20382;-65
2021/09/02 14:22:30;;;;;;;10.10;9.20;;;;;;;;;;5051693;28;20217;-65
2021/09/02 14:24:55;;;;;;;8.03;6.93;;;;;;;;;;5050341;28;20241;-65
2021/09/02 14:27:20;;;;;;;8.70;6.93;;;;;;;;;;5050102;28;20237;-66
2021/09/02 14:29:46;;;;;;;13.00;11.70;;;;;;;;;;5050612;28;20537;-65